createdAt,value
2018-12-24T00:01:31.305Z,12.20
2018-12-24T00:04:00.796Z,12.60
2018-12-24T00:06:30.610Z,12.17
2018-12-24T00:09:00.229Z,12.10
2018-12-24T00:11:29.920Z,13.07
2018-12-24T00:14:00.049Z,11.50
2018-12-24T00:16:29.959Z,11.07
2018-12-24T00:18:59.454Z,10.10
2018-12-24T00:21:29.067Z,11.00
2018-12-24T00:23:58.669Z,10.30
2018-12-24T00:26:28.478Z,10.53
2018-12-24T00:28:57.892Z,11.27
2018-12-24T00:31:28.069Z,11.80
2018-12-24T00:33:58.059Z,10.63
2018-12-24T00:36:27.420Z,9.63
2018-12-24T00:38:57.126Z,11.13
2018-12-24T00:41:26.735Z,9.60
2018-12-24T00:43:56.245Z,10.87
2018-12-24T00:46:25.850Z,10.67
2018-12-24T00:48:56.800Z,9.07
2018-12-24T00:51:26.499Z,10.20
2018-12-24T00:53:56.326Z,8.67
2018-12-24T00:56:26.526Z,8.83
2018-12-24T00:58:56.058Z,9.07
2018-12-24T01:01:25.958Z,8.30
2018-12-24T01:03:55.449Z,8.23
2018-12-24T01:06:25.053Z,7.87
2018-12-24T01:08:54.973Z,7.20
2018-12-24T01:11:25.311Z,8.13
2018-12-24T01:13:55.031Z,9.13
2018-12-24T01:16:24.622Z,8.27
2018-12-24T01:18:54.526Z,9.30
2018-12-24T01:21:24.255Z,8.53
2018-12-24T01:23:53.740Z,8.07
2018-12-24T01:26:23.445Z,8.23
2018-12-24T01:28:53.158Z,8.03
2018-12-24T01:31:22.862Z,9.57
2018-12-24T01:33:52.828Z,9.87
2018-12-24T01:36:22.586Z,10.90
2018-12-24T01:38:52.298Z,9.27
2018-12-24T01:41:22.029Z,9.67
2018-12-24T01:43:51.622Z,11.60
2018-12-24T01:46:21.123Z,10.10
2018-12-24T01:48:50.733Z,14.20
2018-12-24T01:51:20.233Z,12.07
2018-12-24T01:53:50.042Z,12.97
2018-12-24T01:56:19.552Z,9.17
2018-12-24T01:58:49.357Z,11.17
2018-12-24T02:01:19.070Z,9.47
2018-12-24T02:03:49.010Z,10.03
2018-12-24T02:06:18.807Z,9.30
2018-12-24T02:08:48.299Z,8.70
2018-12-24T02:11:18.006Z,7.30
2018-12-24T02:13:47.635Z,5.57
2018-12-24T02:16:18.039Z,5.73
2018-12-24T02:18:47.546Z,4.80
2018-12-24T02:21:17.045Z,5.23
2018-12-24T02:23:46.760Z,4.60
2018-12-24T02:26:16.472Z,4.23
2018-12-24T02:28:46.174Z,4.67
2018-12-24T02:31:15.993Z,5.13
2018-12-24T02:33:46.004Z,5.33
2018-12-24T02:36:15.307Z,6.47
2018-12-24T02:38:45.018Z,5.43
2018-12-24T02:41:14.937Z,6.13
2018-12-24T02:43:44.436Z,4.63
2018-12-24T02:46:14.139Z,4.60
2018-12-24T02:48:43.848Z,4.50
2018-12-24T02:51:13.461Z,5.37
2018-12-24T02:53:42.966Z,5.73
2018-12-24T02:56:12.276Z,5.77
2018-12-24T02:58:42.181Z,5.30
2018-12-24T03:01:11.784Z,5.20
2018-12-24T03:03:41.287Z,5.20
2018-12-24T03:06:11.095Z,5.50
2018-12-24T03:08:40.922Z,4.23
2018-12-24T03:11:10.515Z,5.13
2018-12-24T03:13:40.025Z,4.60
2018-12-24T03:16:09.420Z,5.80
2018-12-24T03:18:39.034Z,5.27
2018-12-24T03:21:08.734Z,5.27
2018-12-24T03:23:38.239Z,4.23
2018-12-24T03:26:08.069Z,5.60
2018-12-24T03:28:37.990Z,5.63
2018-12-24T03:31:07.583Z,6.07
2018-12-24T03:33:37.283Z,7.10
2018-12-24T03:36:07.512Z,11.03
2018-12-24T03:38:37.329Z,8.43
2018-12-24T03:41:07.057Z,6.63
2018-12-24T03:43:36.430Z,8.80
2018-12-24T03:46:06.035Z,10.30
2018-12-24T03:48:35.952Z,9.47
2018-12-24T03:51:05.461Z,10.33
2018-12-24T03:53:35.067Z,10.97
2018-12-24T03:56:05.185Z,12.70
2018-12-24T03:58:34.894Z,10.00
2018-12-24T04:01:04.503Z,11.33
2018-12-24T04:03:34.100Z,11.97
2018-12-24T04:06:04.056Z,12.50
2018-12-24T04:11:24.038Z,19.27
2018-12-24T04:13:54.061Z,15.80
2018-12-24T04:16:24.056Z,13.20
2018-12-24T04:18:58.275Z,12.70
2018-12-24T04:21:28.688Z,15.73
2018-12-24T04:23:58.820Z,23.40
2018-12-24T04:26:28.720Z,13.50
2018-12-24T04:28:58.839Z,14.73
2018-12-24T04:31:28.969Z,14.73
2018-12-24T04:33:59.071Z,17.07
2018-12-24T04:36:31.866Z,17.50
2018-12-24T04:39:01.900Z,16.97
2018-12-24T04:41:31.707Z,17.17
2018-12-24T04:44:02.422Z,17.67
2018-12-24T05:05:18.055Z,16.07
2018-12-24T05:07:51.054Z,16.20
2018-12-24T05:10:29.562Z,17.00
2018-12-24T05:13:03.958Z,15.87
2018-12-24T05:18:14.419Z,14.90
2018-12-24T05:20:44.540Z,14.90
2018-12-24T05:23:14.663Z,16.27
2018-12-24T05:25:44.380Z,17.00
2018-12-24T05:28:22.590Z,16.37
2018-12-24T05:30:57.401Z,18.17
2018-12-24T05:33:27.946Z,20.83
2018-12-24T05:35:57.980Z,19.77
2018-12-24T05:38:28.275Z,22.37
2018-12-24T05:40:59.446Z,22.40
2018-12-24T05:43:29.535Z,22.53
2018-12-24T06:50:09.293Z,19.03
2018-12-24T06:53:00.300Z,17.50
2018-12-24T06:55:34.427Z,18.73
2018-12-24T06:58:07.063Z,18.70
2018-12-24T07:01:13.459Z,21.00
2018-12-24T07:22:51.486Z,13.93
2018-12-24T07:25:36.247Z,12.80
2018-12-24T08:02:28.817Z,10.90
2018-12-24T08:05:04.060Z,9.40
2018-12-24T08:07:38.980Z,9.07
2018-12-24T08:12:52.082Z,8.87
2018-12-24T08:56:19.041Z,10.23
2018-12-24T08:58:52.430Z,9.27
2018-12-24T09:01:22.981Z,8.47
2018-12-24T09:03:53.378Z,7.80
2018-12-24T12:26:43.042Z,4.60
2018-12-24T12:29:13.291Z,5.43
2018-12-24T12:50:31.023Z,6.47
2018-12-24T12:53:03.072Z,7.00
2018-12-24T12:55:34.432Z,5.40
2018-12-24T12:58:05.882Z,5.67
2018-12-24T13:00:37.060Z,5.07
2018-12-24T13:03:07.342Z,6.87
2018-12-24T13:30:40.502Z,6.57
2018-12-24T13:33:12.374Z,7.53
2018-12-24T13:35:43.397Z,9.37
2018-12-24T13:38:16.173Z,10.90
2018-12-24T13:40:47.299Z,11.60
2018-12-24T14:02:03.426Z,8.00
2018-12-24T14:04:37.451Z,8.60
2018-12-24T14:07:08.586Z,9.90
2018-12-24T14:09:46.493Z,7.07
2018-12-24T14:12:19.892Z,6.53
2018-12-24T14:14:49.897Z,5.73
2018-12-24T14:17:21.252Z,6.10
2018-12-24T14:20:07.956Z,5.13
2018-12-24T15:32:11.811Z,10.47
2018-12-24T15:34:50.227Z,10.43
2018-12-24T15:37:23.424Z,11.13
2018-12-24T15:39:54.047Z,11.47
2018-12-24T15:42:24.770Z,10.43
2018-12-24T15:44:55.827Z,12.83
2018-12-24T15:47:27.681Z,11.80
2018-12-24T15:49:58.016Z,11.17
2018-12-24T16:11:11.971Z,15.27
2018-12-24T16:13:41.874Z,13.30
2018-12-24T16:16:12.314Z,13.07
2018-12-24T16:18:42.640Z,8.67
2018-12-24T16:21:12.959Z,9.97
2018-12-24T16:23:42.878Z,9.47
2018-12-24T16:26:13.942Z,9.87
2018-12-24T16:28:44.229Z,8.50
2018-12-24T16:31:15.468Z,9.17
2018-12-24T16:33:45.800Z,9.40
2018-12-24T16:36:16.065Z,13.93
2018-12-24T16:38:46.060Z,8.50
2018-12-24T16:41:15.952Z,9.27
2018-12-24T16:43:45.961Z,9.20
2018-12-24T16:46:16.008Z,9.00
2018-12-24T16:48:46.211Z,7.60
2018-12-24T16:51:17.052Z,8.60
2018-12-24T16:53:46.532Z,7.77
2018-12-24T16:56:16.469Z,8.00
2018-12-24T16:58:46.259Z,8.00
2018-12-24T17:01:16.404Z,8.93
2018-12-24T17:03:45.898Z,9.70
2018-12-24T17:06:16.059Z,10.97
2018-12-24T17:08:46.224Z,7.53
2018-12-24T17:11:16.258Z,8.27
2018-12-24T17:13:46.070Z,10.30
2018-12-24T17:16:15.668Z,8.97
2018-12-24T17:18:45.812Z,9.87
2018-12-24T17:21:15.708Z,9.30
2018-12-24T17:23:45.711Z,9.47
2018-12-24T17:26:15.764Z,8.97
2018-12-24T17:28:45.542Z,7.90
2018-12-24T17:31:15.755Z,8.80
2018-12-24T17:33:45.470Z,9.20
2018-12-24T17:36:15.798Z,10.67
2018-12-24T17:38:45.501Z,10.03
2018-12-24T17:41:15.331Z,11.50
2018-12-24T17:44:26.719Z,9.70
2018-12-24T17:46:56.300Z,10.03
2018-12-24T17:49:26.451Z,8.37
2018-12-24T17:51:56.646Z,7.83
2018-12-24T17:54:26.772Z,7.83
2018-12-24T17:56:57.504Z,7.47
2018-12-24T17:59:27.631Z,6.97
2018-12-24T18:01:57.448Z,6.83
2018-12-24T18:04:27.640Z,6.50
2018-12-24T18:06:57.663Z,6.30
2018-12-24T18:09:27.782Z,8.23
2018-12-24T18:11:58.014Z,7.00
2018-12-24T18:14:27.834Z,6.83
2018-12-24T18:16:57.955Z,6.87
2018-12-24T18:19:28.762Z,6.03
2018-12-24T18:21:58.900Z,5.27
2018-12-24T18:24:28.821Z,6.83
2018-12-24T18:26:59.054Z,6.20
2018-12-24T18:29:29.050Z,5.63
2018-12-24T18:31:59.393Z,5.50
2018-12-24T18:34:29.374Z,7.63
2018-12-24T18:37:00.026Z,7.03
2018-12-24T18:39:30.437Z,6.40
2018-12-24T18:42:00.244Z,8.07
2018-12-24T18:44:30.977Z,5.37
2018-12-24T18:47:00.794Z,5.60
2018-12-24T18:49:31.112Z,6.23
2018-12-24T18:52:01.050Z,5.10
2018-12-24T18:54:31.665Z,4.90
2018-12-24T18:57:02.046Z,4.90
2018-12-24T18:59:32.081Z,5.60
2018-12-24T19:02:20.778Z,4.47
2018-12-24T19:04:51.380Z,6.77
2018-12-24T19:07:22.217Z,5.60
2018-12-24T19:09:52.365Z,5.83
2018-12-24T19:12:22.360Z,6.70
2018-12-24T19:14:52.794Z,6.00
2018-12-24T19:17:23.062Z,5.93
2018-12-24T19:19:53.240Z,5.23
2018-12-24T19:22:24.469Z,6.53
2018-12-24T19:24:55.505Z,7.37
2018-12-24T19:27:25.750Z,10.73
2018-12-24T19:29:56.667Z,6.03
2018-12-24T19:32:26.293Z,5.47
2018-12-24T19:34:56.089Z,5.17
2018-12-24T19:37:26.323Z,5.80
2018-12-24T19:39:56.751Z,5.47
2018-12-24T19:42:27.589Z,6.90
2018-12-24T19:44:58.404Z,7.97
2018-12-24T19:47:28.752Z,15.17
2018-12-24T19:49:58.769Z,9.67
2018-12-24T19:52:29.183Z,6.50
2018-12-24T19:55:00.638Z,5.67
2018-12-24T19:57:31.765Z,6.17
2018-12-24T20:00:02.213Z,7.23
2018-12-24T20:02:32.845Z,6.40
2018-12-24T20:05:02.957Z,5.70
2018-12-24T20:07:33.474Z,5.10
2018-12-24T20:10:04.217Z,3.30
2018-12-24T20:12:34.748Z,3.40
2018-12-24T20:15:05.073Z,3.70
2018-12-24T20:17:35.392Z,4.03
2018-12-24T20:20:06.640Z,4.17
2018-12-24T20:22:37.772Z,3.57
2018-12-24T20:25:08.830Z,4.00
2018-12-24T20:27:38.834Z,4.33
2018-12-24T20:30:09.062Z,4.30
2018-12-24T20:32:40.198Z,5.73
2018-12-24T20:35:10.229Z,7.20
2018-12-24T20:37:40.741Z,5.87
2018-12-24T20:40:11.068Z,6.13
2018-12-24T20:42:43.070Z,4.80
2018-12-24T20:45:12.846Z,5.17
2018-12-24T20:47:42.967Z,5.00
2018-12-24T20:50:12.993Z,4.73
2018-12-24T20:52:43.412Z,5.10
2018-12-24T20:55:13.731Z,4.17
2018-12-24T20:57:43.748Z,4.37
2018-12-24T21:00:14.070Z,4.43
2018-12-24T21:02:43.997Z,4.57
2018-12-24T21:05:15.635Z,4.70
2018-12-24T21:07:48.317Z,4.93
2018-12-24T21:10:18.338Z,5.73
2018-12-24T21:12:48.554Z,6.70
2018-12-24T21:15:19.693Z,8.73
2018-12-24T21:17:50.334Z,7.50
2018-12-24T21:20:21.369Z,6.40
2018-12-24T21:22:52.311Z,8.77
2018-12-24T21:25:23.045Z,7.17
2018-12-24T21:27:53.781Z,6.30
2018-12-24T21:30:24.419Z,6.93
2018-12-24T21:32:54.831Z,7.40
2018-12-24T21:35:25.454Z,6.53
2018-12-24T21:37:57.220Z,8.20
2018-12-24T21:40:28.891Z,7.60
2018-12-24T21:43:00.233Z,7.33
2018-12-24T21:45:31.872Z,8.27
2018-12-24T21:48:03.321Z,7.53
2018-12-24T21:50:34.451Z,7.77
2018-12-24T21:53:05.403Z,7.83
2018-12-24T21:55:38.299Z,7.70
2018-12-24T21:58:08.699Z,8.70
2018-12-24T22:00:39.433Z,8.70
2018-12-24T22:03:10.394Z,8.17
2018-12-24T22:05:40.819Z,9.70
2018-12-24T22:08:11.223Z,8.83
2018-12-24T22:10:41.446Z,8.70
2018-12-24T22:13:11.891Z,7.87
2018-12-24T22:15:42.205Z,6.70
2018-12-24T22:18:12.725Z,6.83
2018-12-24T22:20:43.059Z,6.70
2018-12-24T22:23:13.788Z,6.47
2018-12-24T22:25:43.923Z,6.67
2018-12-24T22:28:13.720Z,7.37
2018-12-24T22:30:43.840Z,7.23
2018-12-24T22:33:14.065Z,6.57
2018-12-24T22:35:45.200Z,8.00
2018-12-24T22:38:15.942Z,7.07
2018-12-24T22:40:46.570Z,6.70
2018-12-24T22:43:16.889Z,6.20
2018-12-24T22:45:47.018Z,5.60
2018-12-24T22:48:17.217Z,5.70
2018-12-24T22:50:47.436Z,5.83
2018-12-24T22:53:19.246Z,6.97
2018-12-24T22:55:49.736Z,6.20
2018-12-24T22:58:19.759Z,7.20
2018-12-24T23:00:50.470Z,6.97
2018-12-24T23:03:20.727Z,7.27
2018-12-24T23:05:51.053Z,8.20
2018-12-24T23:08:21.440Z,7.77
2018-12-24T23:10:51.460Z,6.50
2018-12-24T23:13:22.084Z,6.83
2018-12-24T23:15:53.952Z,6.63
2018-12-24T23:18:23.558Z,6.60
2018-12-24T23:20:53.689Z,6.13
2018-12-24T23:23:23.802Z,6.57
2018-12-24T23:25:54.750Z,6.80
2018-12-24T23:28:25.171Z,5.60
2018-12-24T23:30:55.381Z,5.93
2018-12-24T23:33:25.404Z,7.07
2018-12-24T23:35:55.741Z,6.27
2018-12-24T23:38:26.778Z,6.40
2018-12-24T23:40:57.492Z,5.97
2018-12-24T23:43:27.426Z,5.67
2018-12-24T23:45:57.627Z,5.80
2018-12-24T23:48:27.973Z,5.73
2018-12-24T23:50:57.879Z,6.17
2018-12-24T23:53:28.203Z,5.97
2018-12-24T23:55:58.415Z,5.83
2018-12-24T23:58:28.428Z,6.27
